Lowland, NC (28552)

12:12 AM EDT on August 01, 2014 (GMT -0400)
Belhaven - Schooner Point (KNCBELHA3) Elev 3 ft | 35.52 °N, 76.64 °W | Change Station

Current weather conditions updated 2 seconds ago

Clear
Clear
78.3 °F
Feels Like 81 °F
N
8.0
Wind Variable Wind from East
Gusts 12.0 mph

Today is forecast to be Cooler than yesterday. Showers and thunderstorms.

Today
High -- | Low -- °F
--% Chance of Precip.
Yesterday
High -- | Low -- °F
Precip. -- in
6:15 AM 8:09 PM
Waxing Crescent, 23% visible
Pressure 30.16 in
Visibility 10.0 miles
Clouds Clear
Heat Index 81 °F
Dew Point 71 °F
Humidity 78%
Rainfall 0.00 in
Snow Depth Not available.
UV 0 out of 12
Pollen 5.80 out of 12
Air Quality Not available.
Flu Activity Not available.
METAR KNBT 010356Z AUTO 10011KT 10SM CLR 27/21 A3015 RMK AO2 SLP212 T02720206 PNO

More Conditions Fewer Conditions

Pressure 30.16 in
Visibility 10.0 miles
Clouds Clear
Heat Index 81 °F
Dew Point 71 °F
Humidity 78%
Rainfall 0.00 in
Snow Depth Not available.
UV 0 out of 12
Pollen 5.80 out of 12
Air Quality Not available.
Flu Activity Not available.
METAR KNBT 010356Z AUTO 10011KT 10SM CLR 27/21 A3015 RMK AO2 SLP212 T02720206 PNO

More Conditions Fewer Conditions

10-Day Weather Forecast

Almanac

Astronomy

Aug. 01, 2014 Rise Set
Actual Time 6:15 AM EDT 8:09 PM EDT
Civil Twilight 5:47 AM EDT 8:37 PM EDT
Nautical Twilight 5:13 AM EDT 9:11 PM EDT
Astronomical Twilight 4:36 AM EDT 9:47 PM EDT
Moon 11:23 AM EDT 11:07 PM EDT
Length of Visible Light 14h 50m
Length of Day
13h 54m
Tomorrow will be 1m 39s shorter.
Waxing Crescent, 23% of the Moon is Illuminated
Today
Waxing Crescent
Aug 3
First Quarter
Aug 10
Full
Aug 17
Last Quarter
Aug 25
New

Yesterday's Extremes

State Highs State Lows

Community

WunderPhotos

Upload Photos

1,739,509 photos uploaded!

Nearby

Snow Depth

Station Depth Elevation
No new snow has been reported.

Earthquake Activity

City Distance Mag. Time & Date
No recent earthquake activity has been reported nearby.
Minimum magnitude displayed is 2.5.

Coastal Water Temperatures

Place Temperature
No Stations Reporting

Nearby Weather Stations

Station Location Temp. Heat Index Dew Point Humidity Wind Precip. Elev Updated Type
Belhaven - Schooner Point, Belhaven, NC 78.3 °F 81 °F 71 °F 78% East  at  8.0 mph 0.00 in / hr 3 ft 12:12 AM EDT Rapid Fire
Oriental, NC, Oriental, NC 77.3 °F 79 °F 70 °F 78% North  at  0.9 mph - / hr 13 ft 12:06 AM EDT Normal
Oriental/Greens Creek, NC, Oriental, NC 79.0 °F 82 °F 72 °F 78% SSE  at  0.0 mph 0.00 in / hr 12 ft 12:12 AM EDT Rapid Fire
Janiero, Araphoe, NC 78.5 °F 81 °F 71 °F 77% ESE  at  9.0 mph 0.00 in / hr 5 ft 12:04 AM EDT Normal
Arapahoe, NC, South Arapahoe, NC 75.5 °F 75 °F 71 °F 87% SE  at  0.0 mph 0.00 in / hr 75 ft 12:02 AM EDT Normal
Pamlico Plantation, Washington, NC 73.6 °F 73 °F 68 °F 82% East  at  0.0 mph 0.00 in / hr 15 ft 12:10 AM EDT Normal

Show More Stations Show Fewer Stations